createdAt,value
2019-06-26T00:00:39.255Z,983.00
2019-06-26T00:01:39.017Z,983.00
2019-06-26T00:02:39.065Z,982.98
2019-06-26T00:03:38.871Z,982.99
2019-06-26T00:04:38.979Z,983.00
2019-06-26T00:05:38.730Z,983.00
2019-06-26T00:06:38.789Z,983.01
2019-06-26T00:07:38.583Z,982.94
2019-06-26T00:08:38.698Z,983.02
2019-06-26T00:09:38.436Z,983.01
2019-06-26T00:10:38.521Z,982.95
2019-06-26T00:11:38.292Z,982.98
2019-06-26T00:12:38.417Z,982.95
2019-06-26T00:13:38.146Z,983.02
2019-06-26T00:14:39.046Z,983.02
2019-06-26T00:15:38.001Z,983.02
2019-06-26T00:16:38.139Z,983.01
2019-06-26T00:17:37.857Z,983.03
2019-06-26T00:18:37.946Z,983.01
2019-06-26T00:19:37.753Z,983.02
2019-06-26T00:20:37.858Z,982.99
2019-06-26T00:21:37.569Z,983.01
2019-06-26T00:22:37.670Z,982.99
2019-06-26T00:23:37.427Z,983.01
2019-06-26T00:24:37.478Z,982.98
2019-06-26T00:25:37.281Z,982.98
2019-06-26T00:26:37.388Z,982.95
2019-06-26T00:27:37.133Z,982.97
2019-06-26T00:28:37.197Z,982.95
2019-06-26T00:29:36.988Z,982.95
2019-06-26T00:30:37.108Z,982.91
2019-06-26T00:31:36.842Z,982.91
2019-06-26T00:32:38.967Z,982.92
2019-06-26T00:33:36.691Z,982.88
2019-06-26T00:34:36.829Z,982.90
2019-06-26T00:35:36.550Z,982.91
2019-06-26T00:36:36.640Z,982.93
2019-06-26T00:37:36.410Z,982.93
2019-06-26T00:38:40.087Z,982.94
2019-06-26T00:39:36.259Z,982.97
2019-06-26T00:40:36.358Z,982.97
2019-06-26T00:41:36.122Z,982.96
2019-06-26T00:42:43.028Z,982.96
2019-06-26T00:43:42.378Z,983.01
2019-06-26T00:44:43.043Z,982.98
2019-06-26T00:45:35.825Z,983.00
2019-06-26T00:46:35.895Z,982.97
2019-06-26T00:47:35.674Z,982.97
2019-06-26T00:48:37.745Z,983.00
2019-06-26T00:49:35.529Z,983.01
2019-06-26T00:50:35.608Z,983.01
2019-06-26T00:51:35.379Z,983.03
2019-06-26T00:52:35.514Z,983.00
2019-06-26T00:53:35.240Z,983.05
2019-06-26T00:54:35.327Z,983.06
2019-06-26T00:55:35.091Z,983.04
2019-06-26T00:56:35.021Z,983.02
2019-06-26T00:57:35.157Z,983.04
2019-06-26T00:58:34.873Z,983.01
2019-06-26T00:59:34.954Z,983.04
2019-06-26T01:00:34.724Z,983.01
2019-06-26T01:01:34.862Z,983.03
2019-06-26T01:02:34.589Z,983.04
2019-06-26T01:03:34.692Z,983.04
2019-06-26T01:04:34.434Z,983.04
2019-06-26T01:05:34.585Z,983.05
2019-06-26T01:06:34.291Z,983.02
2019-06-26T01:07:34.394Z,983.05
2019-06-26T01:08:34.140Z,983.04
2019-06-26T01:09:34.203Z,983.04
2019-06-26T01:10:33.998Z,983.06
2019-06-26T01:11:34.113Z,983.02
2019-06-26T01:12:33.855Z,983.05
2019-06-26T01:13:33.923Z,983.04
2019-06-26T01:14:33.707Z,983.03
2019-06-26T01:15:33.837Z,983.06
2019-06-26T01:16:33.560Z,983.04
2019-06-26T01:17:33.648Z,983.02
2019-06-26T01:18:33.410Z,983.04
2019-06-26T01:19:33.554Z,983.02
2019-06-26T01:20:33.378Z,983.01
2019-06-26T01:21:33.371Z,983.01
2019-06-26T01:22:33.122Z,983.00
2019-06-26T01:23:33.173Z,982.99
2019-06-26T01:24:33.050Z,983.01
2019-06-26T01:25:33.086Z,982.99
2019-06-26T01:26:32.827Z,983.00
2019-06-26T01:27:32.895Z,982.99
2019-06-26T01:28:32.682Z,983.01
2019-06-26T01:29:32.846Z,983.06
2019-06-26T01:30:32.536Z,983.04
2019-06-26T01:31:32.461Z,983.05
2019-06-26T01:32:32.415Z,983.05
2019-06-26T01:33:32.315Z,983.08
2019-06-26T01:34:32.335Z,983.05
2019-06-26T01:35:32.174Z,983.07
2019-06-26T01:36:32.140Z,983.03
2019-06-26T01:37:32.023Z,983.05
2019-06-26T01:38:32.050Z,983.07
2019-06-26T01:39:31.877Z,983.04
2019-06-26T01:40:31.856Z,983.04
2019-06-26T01:41:31.738Z,983.04
2019-06-26T01:42:31.768Z,983.04
2019-06-26T01:43:31.584Z,983.09
2019-06-26T01:44:31.580Z,983.07
2019-06-26T01:45:31.439Z,983.08
2019-06-26T01:46:31.401Z,983.08
2019-06-26T01:47:31.292Z,983.07
2019-06-26T01:48:31.298Z,983.06
2019-06-26T01:49:31.143Z,983.06
2019-06-26T01:50:31.107Z,983.05
2019-06-26T01:51:30.994Z,983.05
2019-06-26T01:52:31.050Z,983.07
2019-06-26T01:53:30.850Z,983.10
2019-06-26T01:54:30.829Z,983.08
2019-06-26T01:55:30.710Z,983.05
2019-06-26T01:56:30.743Z,983.08
2019-06-26T01:57:30.559Z,983.05
2019-06-26T01:58:30.554Z,983.08
2019-06-26T01:59:30.413Z,983.08
2019-06-26T02:00:30.460Z,983.09
2019-06-26T02:01:30.265Z,983.08
2019-06-26T02:02:30.270Z,983.08
2019-06-26T02:03:30.121Z,983.01
2019-06-26T02:04:30.079Z,983.05
2019-06-26T02:05:29.974Z,983.03
2019-06-26T02:06:29.989Z,983.07
2019-06-26T02:07:29.826Z,983.11
2019-06-26T02:08:29.794Z,983.09
2019-06-26T02:09:29.689Z,983.11
2019-06-26T02:10:29.714Z,983.13
2019-06-26T02:11:29.531Z,983.09
2019-06-26T02:12:29.522Z,983.08
2019-06-26T02:13:29.386Z,983.11
2019-06-26T02:14:31.382Z,983.11
2019-06-26T02:15:29.235Z,983.13
2019-06-26T02:16:29.237Z,983.16
2019-06-26T02:17:29.089Z,983.14
2019-06-26T02:18:29.050Z,983.15
2019-06-26T02:19:28.945Z,983.15
2019-06-26T02:20:28.961Z,983.13
2019-06-26T02:21:28.799Z,983.20
2019-06-26T02:22:28.768Z,983.21
2019-06-26T02:23:28.653Z,983.18
2019-06-26T02:24:28.681Z,983.16
2019-06-26T02:25:28.512Z,983.14
2019-06-26T02:26:28.488Z,983.12
2019-06-26T02:27:28.356Z,983.12
2019-06-26T02:28:28.404Z,983.10
2019-06-26T02:29:28.212Z,983.12
2019-06-26T02:30:28.206Z,983.11
2019-06-26T02:31:28.061Z,983.11
2019-06-26T02:32:28.021Z,983.11
2019-06-26T02:33:27.926Z,983.12
2019-06-26T02:34:27.933Z,983.10
2019-06-26T02:35:27.775Z,983.15
2019-06-26T02:36:27.736Z,983.15
2019-06-26T02:37:27.627Z,983.17
2019-06-26T02:38:27.653Z,983.15
2019-06-26T02:39:27.481Z,983.18
2019-06-26T02:40:27.461Z,983.18
2019-06-26T02:41:27.331Z,983.17
2019-06-26T02:42:27.398Z,983.16
2019-06-26T02:43:27.185Z,983.18
2019-06-26T02:44:27.204Z,983.16
2019-06-26T02:45:27.041Z,983.16
2019-06-26T02:46:26.989Z,983.17
2019-06-26T02:47:26.885Z,983.19
2019-06-26T02:48:26.900Z,983.19
2019-06-26T02:49:26.741Z,983.19
2019-06-26T02:50:26.713Z,983.19
2019-06-26T02:51:26.599Z,983.17
2019-06-26T02:52:26.651Z,983.16
2019-06-26T02:53:26.447Z,983.18
2019-06-26T02:54:26.434Z,983.15
2019-06-26T02:55:26.301Z,983.16
2019-06-26T02:56:26.344Z,983.17
2019-06-26T02:57:26.154Z,983.13
2019-06-26T02:58:26.150Z,983.13
2019-06-26T02:59:26.004Z,983.17
2019-06-26T03:00:25.959Z,983.14
2019-06-26T03:01:25.860Z,983.15
2019-06-26T03:02:25.882Z,983.15
2019-06-26T03:03:25.719Z,983.11
2019-06-26T03:04:25.680Z,983.11
2019-06-26T03:05:25.570Z,983.14
2019-06-26T03:06:25.590Z,983.14
2019-06-26T03:07:25.412Z,983.15
2019-06-26T03:08:25.400Z,983.13
2019-06-26T03:09:25.318Z,983.11
2019-06-26T03:10:25.322Z,983.14
2019-06-26T03:11:25.119Z,983.10
2019-06-26T03:12:25.120Z,983.14
2019-06-26T03:13:24.971Z,983.09
2019-06-26T03:14:24.934Z,983.10
2019-06-26T03:15:24.825Z,983.12
2019-06-26T03:16:24.843Z,983.10
2019-06-26T03:17:24.675Z,983.10
2019-06-26T03:18:24.656Z,983.09
2019-06-26T03:19:24.528Z,983.12
2019-06-26T03:20:24.566Z,983.15
2019-06-26T03:21:24.379Z,983.12
2019-06-26T03:22:24.369Z,983.12
2019-06-26T03:23:24.231Z,983.13
2019-06-26T03:24:24.181Z,983.16
2019-06-26T03:25:24.083Z,983.15
2019-06-26T03:26:24.090Z,983.17
2019-06-26T03:27:23.934Z,983.16
2019-06-26T03:28:23.902Z,983.14
2019-06-26T03:29:23.789Z,983.12
2019-06-26T03:30:23.814Z,983.16
2019-06-26T03:31:23.642Z,983.16
2019-06-26T03:32:23.629Z,983.16
2019-06-26T03:33:23.495Z,983.17
2019-06-26T03:34:23.530Z,983.20
2019-06-26T03:35:23.343Z,983.17
2019-06-26T03:36:23.340Z,983.16
2019-06-26T03:37:23.201Z,983.14
2019-06-26T03:38:23.150Z,983.14
2019-06-26T03:39:23.050Z,983.14
2019-06-26T03:40:23.061Z,983.14
2019-06-26T03:41:22.900Z,983.16
2019-06-26T03:42:22.870Z,983.15
2019-06-26T03:43:22.750Z,983.18
2019-06-26T03:44:22.786Z,983.14
2019-06-26T03:45:26.307Z,983.14
2019-06-26T03:46:22.591Z,983.16
2019-06-26T03:47:22.452Z,983.16
2019-06-26T03:48:22.503Z,983.18
2019-06-26T03:49:22.309Z,983.19
2019-06-26T03:50:22.312Z,983.16
2019-06-26T03:51:22.163Z,983.18
2019-06-26T03:52:22.119Z,983.20
2019-06-26T03:53:22.021Z,983.18
2019-06-26T03:54:22.035Z,983.20
2019-06-26T03:55:21.865Z,983.22
2019-06-26T03:56:21.842Z,983.19
2019-06-26T03:57:21.717Z,983.19
2019-06-26T03:58:21.796Z,983.21
2019-06-26T03:59:21.567Z,983.20
2019-06-26T04:00:21.580Z,983.20
2019-06-26T04:01:21.429Z,983.23
2019-06-26T04:02:21.372Z,983.21
2019-06-26T04:03:21.277Z,983.22
2019-06-26T04:04:21.284Z,983.23
2019-06-26T04:05:21.174Z,983.22
2019-06-26T04:06:21.095Z,983.28
2019-06-26T04:07:20.976Z,983.25
2019-06-26T04:08:21.003Z,983.26
2019-06-26T04:09:20.829Z,983.25
2019-06-26T04:10:20.813Z,983.25
2019-06-26T04:11:20.691Z,983.27
2019-06-26T04:12:20.724Z,983.25
2019-06-26T04:13:20.683Z,983.28
2019-06-26T04:14:20.532Z,983.29
2019-06-26T04:15:20.384Z,983.31
2019-06-26T04:16:20.344Z,983.30
2019-06-26T04:17:20.236Z,983.32
2019-06-26T04:18:20.254Z,983.33
2019-06-26T04:19:20.091Z,983.33
2019-06-26T04:20:20.061Z,983.34
2019-06-26T04:21:19.942Z,983.33
2019-06-26T04:22:19.972Z,983.30
2019-06-26T04:23:19.794Z,983.32
2019-06-26T04:24:19.783Z,983.30
2019-06-26T04:25:19.648Z,983.31
2019-06-26T04:26:19.694Z,983.29
2019-06-26T04:27:19.497Z,983.32
2019-06-26T04:28:19.505Z,983.32
2019-06-26T04:29:19.352Z,983.35
2019-06-26T04:30:19.338Z,983.33
2019-06-26T04:31:19.202Z,983.37
2019-06-26T04:32:19.232Z,983.33
2019-06-26T04:33:19.053Z,983.34
2019-06-26T04:34:19.032Z,983.34
2019-06-26T04:35:18.908Z,983.39
2019-06-26T04:36:18.944Z,983.39
2019-06-26T04:37:18.765Z,983.42
2019-06-26T04:38:18.751Z,983.38
2019-06-26T04:39:18.614Z,983.39
2019-06-26T04:40:20.420Z,983.40
2019-06-26T04:41:18.469Z,983.37
2019-06-26T04:42:18.477Z,983.37
2019-06-26T04:43:18.316Z,983.40
2019-06-26T04:44:18.286Z,983.37
2019-06-26T04:45:18.371Z,983.40
2019-06-26T04:46:18.192Z,983.40
2019-06-26T04:47:18.029Z,983.38
2019-06-26T04:48:18.007Z,983.37
2019-06-26T04:49:17.883Z,983.37
2019-06-26T04:50:17.914Z,983.40
2019-06-26T04:51:17.729Z,983.37
2019-06-26T04:52:17.724Z,983.38
2019-06-26T04:53:17.578Z,983.38
2019-06-26T04:54:17.533Z,983.43
2019-06-26T04:55:17.440Z,983.43
2019-06-26T04:56:17.445Z,983.39
2019-06-26T04:57:17.283Z,983.40
2019-06-26T04:58:17.262Z,983.41
2019-06-26T04:59:17.131Z,983.37
2019-06-26T05:00:17.188Z,983.39
2019-06-26T05:01:16.991Z,983.36
2019-06-26T05:02:16.973Z,983.38
2019-06-26T05:03:16.844Z,983.35
2019-06-26T05:04:16.881Z,983.37
2019-06-26T05:05:16.696Z,983.37
2019-06-26T05:06:16.695Z,983.33
2019-06-26T05:07:16.554Z,983.35
2019-06-26T05:08:16.505Z,983.35
2019-06-26T05:09:16.516Z,983.39
2019-06-26T05:10:16.427Z,983.42
2019-06-26T05:11:16.254Z,983.44
2019-06-26T05:12:16.227Z,983.43
2019-06-26T05:13:16.110Z,983.44
2019-06-26T05:14:16.136Z,983.44
2019-06-26T05:15:15.964Z,983.44
2019-06-26T05:16:20.108Z,983.41
2019-06-26T05:17:15.816Z,983.42
2019-06-26T05:18:15.853Z,983.40
2019-06-26T05:19:15.669Z,983.43
2019-06-26T05:20:15.667Z,983.42
2019-06-26T05:21:15.541Z,983.41
2019-06-26T05:22:15.474Z,983.42
2019-06-26T05:23:15.378Z,983.39
2019-06-26T05:24:15.461Z,983.42
2019-06-26T05:25:15.232Z,983.43
2019-06-26T05:26:15.199Z,983.43
2019-06-26T05:27:15.086Z,983.44
2019-06-26T05:28:15.123Z,983.46
2019-06-26T05:29:14.938Z,983.44
2019-06-26T05:30:14.917Z,983.47
2019-06-26T05:31:14.792Z,983.49
2019-06-26T05:32:14.826Z,983.49
2019-06-26T05:33:14.795Z,983.51
2019-06-26T05:34:14.593Z,983.50
2019-06-26T05:35:15.368Z,983.53
2019-06-26T05:36:14.429Z,983.52
2019-06-26T05:37:14.529Z,983.55
2019-06-26T05:38:14.284Z,983.53
2019-06-26T05:39:14.221Z,983.52
2019-06-26T05:40:14.138Z,983.50
2019-06-26T05:41:14.070Z,983.55
2019-06-26T05:42:13.994Z,983.54
2019-06-26T05:43:13.920Z,983.56
2019-06-26T05:44:13.846Z,983.55
2019-06-26T05:45:13.891Z,983.59
2019-06-26T05:46:29.768Z,983.54
2019-06-26T05:47:13.626Z,983.57
2019-06-26T05:48:13.708Z,983.58
2019-06-26T05:49:13.483Z,983.61
2019-06-26T05:50:13.517Z,983.61
2019-06-26T05:51:13.341Z,983.61
2019-06-26T05:52:16.500Z,983.65
2019-06-26T05:53:13.335Z,983.63
2019-06-26T05:54:13.122Z,983.66
2019-06-26T05:55:13.051Z,983.64
2019-06-26T05:56:12.976Z,983.65
2019-06-26T05:57:12.909Z,983.68
2019-06-26T05:58:12.831Z,983.64
2019-06-26T05:59:12.882Z,983.61
2019-06-26T06:00:12.703Z,983.63
2019-06-26T06:01:12.616Z,983.61
2019-06-26T06:02:12.550Z,983.63
2019-06-26T06:03:12.587Z,983.65
2019-06-26T06:04:12.402Z,983.65
2019-06-26T06:05:12.325Z,983.63
2019-06-26T06:06:12.256Z,983.67
2019-06-26T06:07:12.304Z,983.64
2019-06-26T06:08:12.119Z,983.66
2019-06-26T06:09:12.040Z,983.67
2019-06-26T06:10:12.019Z,983.70
2019-06-26T06:11:11.896Z,983.68
2019-06-26T06:12:11.930Z,983.65
2019-06-26T06:13:11.753Z,983.69
2019-06-26T06:14:11.739Z,983.71
2019-06-26T06:15:11.609Z,983.72
2019-06-26T06:16:11.651Z,983.69
2019-06-26T06:17:11.470Z,983.69
2019-06-26T06:18:11.592Z,983.70
2019-06-26T06:19:11.323Z,983.72
2019-06-26T06:20:11.374Z,983.73
2019-06-26T06:21:11.184Z,983.73
2019-06-26T06:22:11.180Z,983.76
2019-06-26T06:23:11.054Z,983.74
2019-06-26T06:24:10.988Z,983.71
2019-06-26T06:25:10.911Z,983.76
2019-06-26T06:26:10.825Z,983.77
2019-06-26T06:27:10.808Z,983.77
2019-06-26T06:28:10.679Z,983.78
2019-06-26T06:29:10.721Z,983.78
2019-06-26T06:30:10.552Z,983.78
2019-06-26T06:31:10.468Z,983.80
2019-06-26T06:32:10.453Z,983.80
2019-06-26T06:33:10.332Z,983.82
2019-06-26T06:34:10.261Z,983.81
2019-06-26T06:35:10.183Z,983.80
2019-06-26T06:36:10.114Z,983.84
2019-06-26T06:37:10.041Z,983.82
2019-06-26T06:38:09.977Z,983.83
2019-06-26T06:39:09.900Z,983.86
2019-06-26T06:40:09.833Z,983.85
2019-06-26T06:41:09.897Z,983.84
2019-06-26T06:42:09.697Z,983.88
2019-06-26T06:43:09.612Z,983.88
2019-06-26T06:44:09.592Z,983.85
2019-06-26T06:45:09.477Z,983.91
2019-06-26T06:46:09.408Z,983.88
2019-06-26T06:47:09.333Z,983.89
2019-06-26T06:48:09.312Z,983.89
2019-06-26T06:49:09.197Z,983.90
2019-06-26T06:50:09.221Z,983.90
2019-06-26T06:51:09.057Z,983.92
2019-06-26T06:52:09.031Z,983.94
2019-06-26T06:53:08.914Z,983.97
2019-06-26T06:54:08.943Z,983.99
2019-06-26T06:55:08.778Z,983.98
2019-06-26T06:56:08.851Z,983.97
2019-06-26T06:57:08.635Z,984.02
2019-06-26T06:58:09.430Z,984.04
2019-06-26T06:59:08.496Z,984.04
2019-06-26T07:00:08.472Z,984.03
2019-06-26T07:01:08.551Z,984.09
2019-06-26T07:02:08.282Z,984.05
2019-06-26T07:03:08.293Z,984.07
2019-06-26T07:04:08.149Z,984.07
2019-06-26T07:05:08.094Z,984.09
2019-06-26T07:06:08.007Z,984.08
2019-06-26T07:07:08.010Z,984.10
2019-06-26T07:08:07.921Z,984.10
2019-06-26T07:09:07.920Z,984.13
2019-06-26T07:10:07.728Z,984.16
2019-06-26T07:11:07.729Z,984.14
2019-06-26T07:12:07.587Z,984.13
2019-06-26T07:13:07.640Z,984.15
2019-06-26T07:14:07.454Z,984.15
2019-06-26T07:15:07.451Z,984.15
2019-06-26T07:16:07.310Z,984.13
2019-06-26T07:17:20.080Z,984.16
2019-06-26T07:18:07.176Z,984.17
2019-06-26T07:19:07.178Z,984.19
2019-06-26T07:20:07.073Z,984.24
2019-06-26T07:21:07.078Z,984.22
2019-06-26T07:22:07.494Z,984.25
2019-06-26T07:23:06.888Z,984.23
2019-06-26T07:24:06.784Z,984.24
2019-06-26T07:25:06.800Z,984.27
2019-06-26T07:26:06.620Z,984.29
2019-06-26T07:27:06.612Z,984.28
2019-06-26T07:28:06.520Z,984.30
2019-06-26T07:29:06.521Z,984.31
2019-06-26T07:30:06.349Z,984.33
2019-06-26T07:31:06.340Z,984.34
2019-06-26T07:32:06.213Z,984.36
2019-06-26T07:33:06.245Z,984.36
2019-06-26T07:34:06.077Z,984.34
2019-06-26T07:35:06.079Z,984.35
2019-06-26T07:36:05.948Z,984.35
2019-06-26T07:37:05.971Z,984.36
2019-06-26T07:38:05.807Z,984.36
2019-06-26T07:39:05.772Z,984.37
2019-06-26T07:40:05.672Z,984.39
2019-06-26T07:41:05.692Z,984.37
2019-06-26T07:42:05.556Z,984.36
2019-06-26T07:43:05.498Z,984.37
2019-06-26T07:44:05.457Z,984.37
2019-06-26T07:45:05.397Z,984.35
2019-06-26T07:46:05.264Z,984.37
2019-06-26T07:47:18.390Z,984.37
2019-06-26T07:48:05.131Z,984.41
2019-06-26T07:49:05.177Z,984.38
2019-06-26T07:50:04.999Z,984.40
2019-06-26T07:51:05.063Z,984.40
2019-06-26T07:52:04.874Z,984.39
2019-06-26T07:53:04.845Z,984.37
2019-06-26T07:54:04.730Z,984.42
2019-06-26T07:55:04.757Z,984.41
2019-06-26T07:56:04.614Z,984.41
2019-06-26T07:57:04.589Z,984.40
2019-06-26T07:58:04.591Z,984.41
2019-06-26T07:59:04.485Z,984.44
2019-06-26T08:00:04.334Z,984.42
2019-06-26T08:01:04.286Z,984.44
2019-06-26T08:02:04.200Z,984.42
2019-06-26T08:03:04.715Z,984.45
2019-06-26T08:04:04.074Z,984.45
2019-06-26T08:05:04.108Z,984.44
2019-06-26T08:06:03.934Z,984.48
2019-06-26T08:07:03.925Z,984.41
2019-06-26T08:08:03.803Z,984.44
2019-06-26T08:09:03.830Z,984.42
2019-06-26T08:10:03.682Z,984.41
2019-06-26T08:11:06.425Z,984.44
2019-06-26T08:12:03.543Z,984.42
2019-06-26T08:13:03.573Z,984.44
2019-06-26T08:14:03.469Z,984.46
2019-06-26T08:15:03.465Z,984.48
2019-06-26T08:16:03.285Z,984.51
2019-06-26T08:17:03.272Z,984.48
2019-06-26T08:18:03.147Z,984.46
2019-06-26T08:19:03.183Z,984.50
2019-06-26T08:20:03.028Z,984.49
2019-06-26T08:21:12.069Z,984.49
2019-06-26T08:22:02.887Z,984.47
2019-06-26T08:23:02.960Z,984.49
2019-06-26T08:24:02.796Z,984.45
2019-06-26T08:25:02.822Z,984.48
2019-06-26T08:26:02.632Z,984.46
2019-06-26T08:27:02.699Z,984.48
2019-06-26T08:28:02.497Z,984.45
2019-06-26T08:29:02.548Z,984.49
2019-06-26T08:30:02.368Z,984.48
2019-06-26T08:31:02.350Z,984.49
2019-06-26T08:32:02.245Z,984.48
2019-06-26T08:33:02.308Z,984.49
2019-06-26T08:34:02.113Z,984.50
2019-06-26T08:35:02.201Z,984.48
2019-06-26T08:36:01.988Z,984.50
2019-06-26T08:37:01.974Z,984.51
2019-06-26T08:38:10.244Z,984.50
2019-06-26T08:39:01.793Z,984.51
2019-06-26T08:40:01.791Z,984.52
2019-06-26T08:41:01.664Z,984.49
2019-06-26T08:42:01.701Z,984.45
2019-06-26T08:43:01.538Z,984.49
2019-06-26T08:44:01.514Z,984.45
2019-06-26T08:45:01.420Z,984.44
2019-06-26T08:46:01.486Z,984.48
2019-06-26T08:47:01.299Z,984.45
2019-06-26T08:48:16.731Z,984.47
2019-06-26T08:49:01.156Z,984.46
2019-06-26T08:50:01.149Z,984.45
2019-06-26T08:51:01.055Z,984.46
2019-06-26T08:52:01.060Z,984.43
2019-06-26T08:53:00.905Z,984.48
2019-06-26T08:54:04.576Z,984.47
2019-06-26T08:55:00.771Z,984.42
2019-06-26T08:56:00.778Z,984.46
2019-06-26T08:57:00.651Z,984.43
2019-06-26T08:58:00.688Z,984.44
2019-06-26T08:59:00.531Z,984.42
2019-06-26T09:00:00.503Z,984.46
2019-06-26T09:01:00.396Z,984.46
2019-06-26T09:02:00.471Z,984.47
2019-06-26T09:03:00.272Z,984.48
2019-06-26T09:04:00.319Z,984.49
2019-06-26T09:05:00.157Z,984.52
2019-06-26T09:06:00.129Z,984.51
2019-06-26T09:07:00.020Z,984.52
2019-06-26T09:08:00.067Z,984.50
2019-06-26T09:08:59.893Z,984.50
2019-06-26T09:09:59.846Z,984.51
2019-06-26T09:10:59.762Z,984.52
2019-06-26T09:11:59.863Z,984.52
2019-06-26T09:12:59.638Z,984.49
2019-06-26T09:13:59.672Z,984.52
2019-06-26T09:14:59.519Z,984.52
2019-06-26T09:15:59.480Z,984.50
2019-06-26T09:16:59.386Z,984.51
2019-06-26T09:17:59.495Z,984.51
2019-06-26T09:18:59.261Z,984.53
2019-06-26T09:19:59.308Z,984.53
2019-06-26T09:20:59.155Z,984.52
2019-06-26T09:21:59.219Z,984.50
2019-06-26T09:22:59.020Z,984.51
2019-06-26T09:23:59.127Z,984.52
2019-06-26T09:24:58.887Z,984.50
2019-06-26T09:25:58.936Z,984.53
2019-06-26T09:26:58.762Z,984.53
2019-06-26T09:27:58.847Z,984.51
2019-06-26T09:28:58.643Z,984.46
2019-06-26T09:29:58.760Z,984.48
2019-06-26T09:30:58.518Z,984.52
2019-06-26T09:31:58.566Z,984.49
2019-06-26T09:32:58.391Z,984.47
2019-06-26T09:33:58.487Z,984.49
2019-06-26T09:34:58.265Z,984.49
2019-06-26T09:35:58.289Z,984.47
2019-06-26T09:36:58.148Z,984.48
2019-06-26T09:37:58.199Z,984.53
2019-06-26T09:38:58.156Z,984.46
2019-06-26T09:39:58.109Z,984.47
2019-06-26T09:40:57.892Z,984.42
2019-06-26T09:41:57.918Z,984.42
2019-06-26T09:42:57.767Z,984.41
2019-06-26T09:43:57.831Z,984.45
2019-06-26T09:44:57.684Z,984.41
2019-06-26T09:45:57.743Z,984.37
2019-06-26T09:46:57.532Z,984.41
2019-06-26T09:47:57.553Z,984.43
2019-06-26T09:48:57.409Z,984.40
2019-06-26T09:49:57.469Z,984.38
2019-06-26T09:50:57.270Z,984.40
2019-06-26T09:51:57.381Z,984.39
2019-06-26T09:52:57.144Z,984.39
2019-06-26T09:53:57.183Z,984.38
2019-06-26T09:54:57.093Z,984.40
2019-06-26T09:55:57.096Z,984.37
2019-06-26T09:56:56.914Z,984.35
2019-06-26T09:57:57.008Z,984.39
2019-06-26T09:58:56.766Z,984.39
2019-06-26T09:59:56.816Z,984.40
2019-06-26T10:00:56.645Z,984.40
2019-06-26T10:01:56.726Z,984.43
2019-06-26T10:02:56.525Z,984.39
2019-06-26T10:03:56.639Z,984.43
2019-06-26T10:04:56.402Z,984.38
2019-06-26T10:05:56.448Z,984.36
2019-06-26T10:06:56.276Z,984.36
2019-06-26T10:07:56.361Z,984.34
2019-06-26T10:08:56.154Z,984.33
2019-06-26T10:09:56.167Z,984.33
2019-06-26T10:10:56.027Z,984.30
2019-06-26T10:11:56.183Z,984.30
2019-06-26T10:12:55.906Z,984.30
2019-06-26T10:13:55.992Z,984.30
2019-06-26T10:14:55.781Z,984.26
2019-06-26T10:15:55.800Z,984.26
2019-06-26T10:16:55.657Z,984.25
2019-06-26T10:17:55.716Z,984.26
2019-06-26T10:19:09.620Z,984.29
2019-06-26T10:19:55.477Z,984.29
2019-06-26T10:20:55.528Z,984.31
2019-06-26T10:21:55.355Z,984.30
2019-06-26T10:22:55.442Z,984.33
2019-06-26T10:23:55.230Z,984.26
2019-06-26T10:24:55.355Z,984.25
2019-06-26T10:25:55.122Z,984.26
2019-06-26T10:26:55.164Z,984.26
2019-06-26T10:27:54.984Z,984.28
2019-06-26T10:28:55.071Z,984.24
2019-06-26T10:29:54.897Z,984.23
2019-06-26T10:30:54.987Z,984.21
2019-06-26T10:31:54.780Z,984.23
2019-06-26T10:32:54.793Z,984.23
2019-06-26T10:33:54.620Z,984.24
2019-06-26T10:34:54.763Z,984.21
2019-06-26T10:35:54.492Z,984.24
2019-06-26T10:36:54.620Z,984.23
2019-06-26T10:37:54.370Z,984.25
2019-06-26T10:38:54.424Z,984.23
2019-06-26T10:39:54.248Z,984.24
2019-06-26T10:40:54.234Z,984.24
2019-06-26T10:41:55.170Z,984.21
2019-06-26T10:42:54.141Z,984.22
2019-06-26T10:43:54.005Z,984.21
2019-06-26T10:44:54.059Z,984.22
2019-06-26T10:45:53.879Z,984.23
2019-06-26T10:46:53.894Z,984.21
2019-06-26T10:47:53.763Z,984.21
2019-06-26T10:48:53.860Z,984.20
2019-06-26T10:49:53.635Z,984.20
2019-06-26T10:50:58.571Z,984.20
2019-06-26T10:51:53.514Z,984.22
2019-06-26T10:52:53.497Z,984.17
2019-06-26T10:53:53.391Z,984.17
2019-06-26T10:54:53.508Z,984.18
2019-06-26T10:55:53.272Z,984.16
2019-06-26T10:56:53.321Z,984.19
2019-06-26T10:57:53.149Z,984.14
2019-06-26T10:58:53.233Z,984.15
2019-06-26T10:59:55.674Z,984.13
2019-06-26T11:00:53.042Z,984.09
2019-06-26T11:01:52.911Z,984.09
2019-06-26T11:02:52.951Z,984.09
2019-06-26T11:03:52.786Z,984.08
2019-06-26T11:04:52.761Z,984.05
2019-06-26T11:05:52.658Z,984.05
2019-06-26T11:06:52.775Z,984.02
2019-06-26T11:07:52.538Z,984.05
2019-06-26T11:08:52.584Z,984.04
2019-06-26T11:09:52.417Z,984.05
2019-06-26T11:10:52.497Z,984.04
2019-06-26T11:11:52.301Z,984.03
2019-06-26T11:12:52.410Z,984.00
2019-06-26T11:13:52.174Z,984.05
2019-06-26T11:14:52.215Z,984.05
2019-06-26T11:15:52.056Z,983.99
2019-06-26T11:16:52.139Z,983.98
2019-06-26T11:17:51.931Z,983.98
2019-06-26T11:18:51.975Z,983.97
2019-06-26T11:19:55.178Z,983.97
2019-06-26T11:20:51.951Z,983.96
2019-06-26T11:21:51.691Z,983.96
2019-06-26T11:22:51.790Z,983.97
2019-06-26T11:23:51.566Z,983.95
2019-06-26T11:24:51.669Z,983.92
2019-06-26T11:25:51.452Z,983.96
2019-06-26T11:26:51.584Z,983.91
2019-06-26T11:27:51.328Z,983.90
2019-06-26T11:28:51.390Z,983.88
2019-06-26T11:29:51.213Z,983.86
2019-06-26T11:30:51.302Z,983.88
2019-06-26T11:31:51.092Z,983.86
2019-06-26T11:32:51.220Z,983.87
2019-06-26T11:33:51.021Z,983.83
2019-06-26T11:34:51.022Z,983.87
2019-06-26T11:35:50.843Z,983.87
2019-06-26T11:37:03.136Z,983.89
2019-06-26T11:37:50.721Z,983.87
2019-06-26T11:38:50.853Z,983.86
2019-06-26T11:39:50.605Z,983.91
2019-06-26T11:40:50.689Z,983.92
2019-06-26T11:41:50.482Z,983.84
2019-06-26T11:42:50.566Z,983.83
2019-06-26T11:43:50.362Z,983.84
2019-06-26T11:44:50.479Z,983.90
2019-06-26T11:45:50.266Z,983.90
2019-06-26T11:46:50.296Z,983.91
2019-06-26T11:47:50.124Z,983.90
2019-06-26T11:48:50.198Z,983.89
2019-06-26T11:49:59.511Z,983.90
2019-06-26T11:50:49.944Z,983.88
2019-06-26T11:51:50.039Z,983.88
2019-06-26T11:52:49.822Z,983.85
2019-06-26T11:53:49.934Z,983.82
2019-06-26T11:55:02.240Z,983.85
2019-06-26T11:55:49.836Z,983.83
2019-06-26T11:56:49.583Z,983.83
2019-06-26T11:57:49.654Z,983.83
2019-06-26T11:58:49.461Z,983.80
2019-06-26T11:59:49.632Z,983.84
2019-06-26T12:00:49.340Z,983.85
2019-06-26T12:01:49.475Z,983.87
2019-06-26T12:02:49.224Z,983.82
2019-06-26T12:03:49.274Z,983.79
2019-06-26T12:04:49.112Z,983.80
2019-06-26T12:05:49.206Z,983.82
2019-06-26T12:06:48.982Z,983.82
2019-06-26T12:07:49.099Z,983.84
2019-06-26T12:08:48.864Z,983.80
2019-06-26T12:09:48.961Z,983.77
2019-06-26T12:10:48.736Z,983.77
2019-06-26T12:11:48.821Z,983.79
2019-06-26T12:12:48.619Z,983.80
2019-06-26T12:13:48.825Z,983.78
2019-06-26T12:14:48.501Z,983.76
2019-06-26T12:15:48.650Z,983.75
2019-06-26T12:16:48.385Z,983.73
2019-06-26T12:17:48.459Z,983.76
2019-06-26T12:18:48.266Z,983.73
2019-06-26T12:19:48.368Z,983.80
2019-06-26T12:20:48.158Z,983.76
2019-06-26T12:21:48.284Z,983.82
2019-06-26T12:22:48.020Z,983.78
2019-06-26T12:23:48.085Z,983.78
2019-06-26T12:24:47.901Z,983.77
2019-06-26T12:25:47.998Z,983.77
2019-06-26T12:26:47.780Z,983.76
2019-06-26T12:27:47.807Z,983.73